sensor_id;sensor_type;location;lat;lon;timestamp;temperature;humidity
7232;DHT22;3657;49.630;11.018;2024-01-27T00:01:19;5.00;99.90
7232;DHT22;3657;49.630;11.018;2024-01-27T00:03:47;4.90;99.90
7232;DHT22;3657;49.630;11.018;2024-01-27T00:06:14;5.00;99.90
7232;DHT22;3657;49.630;11.018;2024-01-27T00:08:40;4.90;99.90
7232;DHT22;3657;49.630;11.018;2024-01-27T00:11:07;4.90;99.90
7232;DHT22;3657;49.630;11.018;2024-01-27T00:13:34;4.90;99.90
7232;DHT22;3657;49.630;11.018;2024-01-27T00:16:01;4.90;99.90
7232;DHT22;3657;49.630;11.018;2024-01-27T00:18:28;4.90;99.90
7232;DHT22;3657;49.630;11.018;2024-01-27T00:20:56;4.90;99.90
7232;DHT22;3657;49.630;11.018;2024-01-27T00:23:23;4.90;99.90
7232;DHT22;3657;49.630;11.018;2024-01-27T00:25:50;4.90;99.90
7232;DHT22;3657;49.630;11.018;2024-01-27T00:28:16;4.80;99.90
7232;DHT22;3657;49.630;11.018;2024-01-27T00:30:43;4.80;99.90
7232;DHT22;3657;49.630;11.018;2024-01-27T00:33:10;4.70;99.90
7232;DHT22;3657;49.630;11.018;2024-01-27T00:35:37;4.70;99.90
7232;DHT22;3657;49.630;11.018;2024-01-27T00:38:06;4.70;99.90
7232;DHT22;3657;49.630;11.018;2024-01-27T00:40:32;4.70;99.90
7232;DHT22;3657;49.630;11.018;2024-01-27T00:43:02;4.70;99.90
7232;DHT22;3657;49.630;11.018;2024-01-27T00:45:29;4.60;99.90
7232;DHT22;3657;49.630;11.018;2024-01-27T00:47:56;4.70;99.90
7232;DHT22;3657;49.630;11.018;2024-01-27T00:50:23;4.70;99.90
7232;DHT22;3657;49.630;11.018;2024-01-27T00:52:50;4.70;99.90
7232;DHT22;3657;49.630;11.018;2024-01-27T00:55:18;4.60;99.90
7232;DHT22;3657;49.630;11.018;2024-01-27T00:57:45;4.60;99.90
7232;DHT22;3657;49.630;11.018;2024-01-27T01:00:12;4.60;99.90
7232;DHT22;3657;49.630;11.018;2024-01-27T01:02:39;4.60;99.90
7232;DHT22;3657;49.630;11.018;2024-01-27T01:05:07;4.60;99.90
7232;DHT22;3657;49.630;11.018;2024-01-27T01:07:34;4.50;99.90
7232;DHT22;3657;49.630;11.018;2024-01-27T01:10:00;4.40;99.90
7232;DHT22;3657;49.630;11.018;2024-01-27T01:12:28;4.40;99.90
7232;DHT22;3657;49.630;11.018;2024-01-27T01:14:55;4.40;99.90
7232;DHT22;3657;49.630;11.018;2024-01-27T01:17:22;4.40;99.90
7232;DHT22;3657;49.630;11.018;2024-01-27T01:19:49;4.50;99.90
7232;DHT22;3657;49.630;11.018;2024-01-27T01:22:15;4.50;99.90
7232;DHT22;3657;49.630;11.018;2024-01-27T01:24:42;4.40;99.90
7232;DHT22;3657;49.630;11.018;2024-01-27T01:27:09;4.50;99.90
7232;DHT22;3657;49.630;11.018;2024-01-27T01:29:37;4.40;99.90
7232;DHT22;3657;49.630;11.018;2024-01-27T01:32:04;4.40;99.90
7232;DHT22;3657;49.630;11.018;2024-01-27T01:34:30;4.40;99.90
7232;DHT22;3657;49.630;11.018;2024-01-27T01:36:59;4.40;99.90
7232;DHT22;3657;49.630;11.018;2024-01-27T01:39:27;4.30;99.90
7232;DHT22;3657;49.630;11.018;2024-01-27T01:41:54;4.30;99.90
7232;DHT22;3657;49.630;11.018;2024-01-27T01:44:20;4.30;99.90
7232;DHT22;3657;49.630;11.018;2024-01-27T01:46:49;4.30;99.90
7232;DHT22;3657;49.630;11.018;2024-01-27T01:49:15;4.20;99.90
7232;DHT22;3657;49.630;11.018;2024-01-27T01:51:42;4.20;99.90
7232;DHT22;3657;49.630;11.018;2024-01-27T01:54:09;4.10;99.90
7232;DHT22;3657;49.630;11.018;2024-01-27T01:56:37;4.10;99.90
7232;DHT22;3657;49.630;11.018;2024-01-27T01:59:04;4.10;99.90
7232;DHT22;3657;49.630;11.018;2024-01-27T02:01:30;4.20;99.90
7232;DHT22;3657;49.630;11.018;2024-01-27T02:03:58;4.20;99.90
7232;DHT22;3657;49.630;11.018;2024-01-27T02:06:25;4.20;99.90
7232;DHT22;3657;49.630;11.018;2024-01-27T02:08:52;4.20;99.90
7232;DHT22;3657;49.630;11.018;2024-01-27T02:11:18;4.20;99.90
7232;DHT22;3657;49.630;11.018;2024-01-27T02:13:47;4.20;99.90
7232;DHT22;3657;49.630;11.018;2024-01-27T02:16:14;4.10;99.90
7232;DHT22;3657;49.630;11.018;2024-01-27T02:18:43;4.10;99.90
7232;DHT22;3657;49.630;11.018;2024-01-27T02:21:11;4.10;99.90
7232;DHT22;3657;49.630;11.018;2024-01-27T02:23:37;4.00;99.90
7232;DHT22;3657;49.630;11.018;2024-01-27T02:26:05;4.00;99.90
7232;DHT22;3657;49.630;11.018;2024-01-27T02:28:32;4.00;99.90
7232;DHT22;3657;49.630;11.018;2024-01-27T02:31:00;4.00;99.90
7232;DHT22;3657;49.630;11.018;2024-01-27T02:33:28;4.00;99.90
7232;DHT22;3657;49.630;11.018;2024-01-27T02:35:55;4.00;99.90
7232;DHT22;3657;49.630;11.018;2024-01-27T02:38:21;4.00;99.90
7232;DHT22;3657;49.630;11.018;2024-01-27T02:40:48;4.00;99.90
7232;DHT22;3657;49.630;11.018;2024-01-27T02:43:16;4.00;99.90
7232;DHT22;3657;49.630;11.018;2024-01-27T02:45:43;3.90;99.90
7232;DHT22;3657;49.630;11.018;2024-01-27T02:48:09;3.90;99.90
7232;DHT22;3657;49.630;11.018;2024-01-27T02:50:36;3.90;99.90
7232;DHT22;3657;49.630;11.018;2024-01-27T02:53:03;3.90;99.90
7232;DHT22;3657;49.630;11.018;2024-01-27T02:55:29;3.90;99.90
7232;DHT22;3657;49.630;11.018;2024-01-27T02:57:56;3.80;99.90
7232;DHT22;3657;49.630;11.018;2024-01-27T03:00:23;3.80;99.90
7232;DHT22;3657;49.630;11.018;2024-01-27T03:02:50;3.80;99.90
7232;DHT22;3657;49.630;11.018;2024-01-27T03:05:16;3.80;99.90
7232;DHT22;3657;49.630;11.018;2024-01-27T03:07:43;3.80;99.90
7232;DHT22;3657;49.630;11.018;2024-01-27T03:10:10;3.70;99.90
7232;DHT22;3657;49.630;11.018;2024-01-27T03:12:37;3.70;99.90
7232;DHT22;3657;49.630;11.018;2024-01-27T03:15:04;3.60;99.90
7232;DHT22;3657;49.630;11.018;2024-01-27T03:17:33;3.60;99.90
7232;DHT22;3657;49.630;11.018;2024-01-27T03:19:59;3.60;99.90
7232;DHT22;3657;49.630;11.018;2024-01-27T03:22:26;3.60;99.90
7232;DHT22;3657;49.630;11.018;2024-01-27T03:24:53;3.60;99.90
7232;DHT22;3657;49.630;11.018;2024-01-27T03:27:20;3.60;99.90
7232;DHT22;3657;49.630;11.018;2024-01-27T03:29:47;3.60;99.90
7232;DHT22;3657;49.630;11.018;2024-01-27T03:32:13;3.60;99.90
7232;DHT22;3657;49.630;11.018;2024-01-27T03:34:44;3.60;99.90
7232;DHT22;3657;49.630;11.018;2024-01-27T03:37:11;3.60;99.90
7232;DHT22;3657;49.630;11.018;2024-01-27T03:39:37;3.50;99.90
7232;DHT22;3657;49.630;11.018;2024-01-27T03:42:07;3.50;99.90
7232;DHT22;3657;49.630;11.018;2024-01-27T03:44:33;3.50;99.90
7232;DHT22;3657;49.630;11.018;2024-01-27T03:47:00;3.50;99.90
7232;DHT22;3657;49.630;11.018;2024-01-27T03:49:27;3.50;99.90
7232;DHT22;3657;49.630;11.018;2024-01-27T03:51:55;3.40;99.90
7232;DHT22;3657;49.630;11.018;2024-01-27T03:54:21;3.40;99.90
7232;DHT22;3657;49.630;11.018;2024-01-27T03:56:48;3.40;99.90
7232;DHT22;3657;49.630;11.018;2024-01-27T03:59:15;3.40;99.90
7232;DHT22;3657;49.630;11.018;2024-01-27T04:01:41;3.40;99.90
7232;DHT22;3657;49.630;11.018;2024-01-27T04:04:08;3.40;99.90
7232;DHT22;3657;49.630;11.018;2024-01-27T04:06:38;3.40;99.90
7232;DHT22;3657;49.630;11.018;2024-01-27T04:09:07;3.40;99.90
7232;DHT22;3657;49.630;11.018;2024-01-27T04:11:34;3.30;99.90
7232;DHT22;3657;49.630;11.018;2024-01-27T04:14:01;3.30;99.90
7232;DHT22;3657;49.630;11.018;2024-01-27T04:16:28;3.30;99.90
7232;DHT22;3657;49.630;11.018;2024-01-27T04:18:55;3.30;99.90
7232;DHT22;3657;49.630;11.018;2024-01-27T04:21:22;3.30;99.90
7232;DHT22;3657;49.630;11.018;2024-01-27T04:23:49;3.30;99.90
7232;DHT22;3657;49.630;11.018;2024-01-27T04:26:17;3.30;99.90
7232;DHT22;3657;49.630;11.018;2024-01-27T04:28:43;3.30;99.90
7232;DHT22;3657;49.630;11.018;2024-01-27T04:31:10;3.20;99.90
7232;DHT22;3657;49.630;11.018;2024-01-27T04:33:37;3.20;99.90
7232;DHT22;3657;49.630;11.018;2024-01-27T04:36:05;3.20;99.90
7232;DHT22;3657;49.630;11.018;2024-01-27T04:38:34;3.10;99.90
7232;DHT22;3657;49.630;11.018;2024-01-27T04:41:01;3.10;99.90
7232;DHT22;3657;49.630;11.018;2024-01-27T04:43:29;3.10;99.90
7232;DHT22;3657;49.630;11.018;2024-01-27T04:45:55;3.10;99.90
7232;DHT22;3657;49.630;11.018;2024-01-27T04:48:22;3.10;99.90
7232;DHT22;3657;49.630;11.018;2024-01-27T04:50:49;3.10;99.90
7232;DHT22;3657;49.630;11.018;2024-01-27T04:53:16;3.10;99.90
7232;DHT22;3657;49.630;11.018;2024-01-27T04:55:42;3.10;99.90
7232;DHT22;3657;49.630;11.018;2024-01-27T04:58:09;3.10;99.90
7232;DHT22;3657;49.630;11.018;2024-01-27T05:00:37;3.10;99.90
7232;DHT22;3657;49.630;11.018;2024-01-27T05:03:04;3.10;99.90
7232;DHT22;3657;49.630;11.018;2024-01-27T05:05:33;3.10;99.90
7232;DHT22;3657;49.630;11.018;2024-01-27T05:07:59;3.10;99.90
7232;DHT22;3657;49.630;11.018;2024-01-27T05:10:26;3.00;99.90
7232;DHT22;3657;49.630;11.018;2024-01-27T05:12:53;3.00;99.90
7232;DHT22;3657;49.630;11.018;2024-01-27T05:15:21;3.00;99.90
7232;DHT22;3657;49.630;11.018;2024-01-27T05:17:49;3.00;99.90
7232;DHT22;3657;49.630;11.018;2024-01-27T05:20:16;3.00;99.90
7232;DHT22;3657;49.630;11.018;2024-01-27T05:22:43;3.00;99.90
7232;DHT22;3657;49.630;11.018;2024-01-27T05:25:10;3.00;99.90
7232;DHT22;3657;49.630;11.018;2024-01-27T05:27:37;3.00;99.90
7232;DHT22;3657;49.630;11.018;2024-01-27T05:30:05;3.00;99.90
7232;DHT22;3657;49.630;11.018;2024-01-27T05:32:32;3.00;99.90
7232;DHT22;3657;49.630;11.018;2024-01-27T05:35:00;3.00;99.90
7232;DHT22;3657;49.630;11.018;2024-01-27T05:37:27;3.00;99.90
7232;DHT22;3657;49.630;11.018;2024-01-27T05:39:54;2.90;99.90
7232;DHT22;3657;49.630;11.018;2024-01-27T05:42:21;2.90;99.90
7232;DHT22;3657;49.630;11.018;2024-01-27T05:44:48;2.90;99.90
7232;DHT22;3657;49.630;11.018;2024-01-27T05:47:15;2.90;99.90
7232;DHT22;3657;49.630;11.018;2024-01-27T05:49:41;2.90;99.90
7232;DHT22;3657;49.630;11.018;2024-01-27T05:52:09;2.90;99.90
7232;DHT22;3657;49.630;11.018;2024-01-27T05:54:36;2.90;99.90
7232;DHT22;3657;49.630;11.018;2024-01-27T05:57:02;2.90;99.90
7232;DHT22;3657;49.630;11.018;2024-01-27T05:59:29;2.90;99.90
7232;DHT22;3657;49.630;11.018;2024-01-27T06:01:56;2.90;99.90
7232;DHT22;3657;49.630;11.018;2024-01-27T06:04:23;2.80;99.90
7232;DHT22;3657;49.630;11.018;2024-01-27T06:06:50;2.80;99.90
7232;DHT22;3657;49.630;11.018;2024-01-27T06:09:18;2.80;99.90
7232;DHT22;3657;49.630;11.018;2024-01-27T06:11:45;2.80;99.90
7232;DHT22;3657;49.630;11.018;2024-01-27T06:14:11;2.80;99.90
7232;DHT22;3657;49.630;11.018;2024-01-27T06:16:38;2.80;99.90
7232;DHT22;3657;49.630;11.018;2024-01-27T06:19:05;2.80;99.90
7232;DHT22;3657;49.630;11.018;2024-01-27T06:21:31;2.70;99.90
7232;DHT22;3657;49.630;11.018;2024-01-27T06:23:58;2.80;99.90
7232;DHT22;3657;49.630;11.018;2024-01-27T06:26:26;2.80;99.90
7232;DHT22;3657;49.630;11.018;2024-01-27T06:28:53;2.70;99.90
7232;DHT22;3657;49.630;11.018;2024-01-27T06:31:20;2.70;99.90
7232;DHT22;3657;49.630;11.018;2024-01-27T06:33:46;2.70;99.90
7232;DHT22;3657;49.630;11.018;2024-01-27T06:36:13;2.70;99.90
7232;DHT22;3657;49.630;11.018;2024-01-27T06:38:40;2.70;99.90
7232;DHT22;3657;49.630;11.018;2024-01-27T06:41:07;2.70;99.90
7232;DHT22;3657;49.630;11.018;2024-01-27T06:43:35;2.60;99.90
7232;DHT22;3657;49.630;11.018;2024-01-27T06:46:01;2.60;99.90
7232;DHT22;3657;49.630;11.018;2024-01-27T06:48:28;2.60;99.90
7232;DHT22;3657;49.630;11.018;2024-01-27T06:50:55;2.60;99.90
7232;DHT22;3657;49.630;11.018;2024-01-27T06:53:21;2.60;99.90
7232;DHT22;3657;49.630;11.018;2024-01-27T06:55:48;2.60;99.90
7232;DHT22;3657;49.630;11.018;2024-01-27T06:58:15;2.60;99.90
7232;DHT22;3657;49.630;11.018;2024-01-27T07:00:43;2.60;99.90
7232;DHT22;3657;49.630;11.018;2024-01-27T07:03:10;2.60;99.90
7232;DHT22;3657;49.630;11.018;2024-01-27T07:05:36;2.60;99.90
7232;DHT22;3657;49.630;11.018;2024-01-27T07:08:05;2.50;99.90
7232;DHT22;3657;49.630;11.018;2024-01-27T07:10:32;2.50;99.90
7232;DHT22;3657;49.630;11.018;2024-01-27T07:12:58;2.50;99.90
7232;DHT22;3657;49.630;11.018;2024-01-27T07:15:25;2.60;99.90
7232;DHT22;3657;49.630;11.018;2024-01-27T07:17:53;2.60;99.90
7232;DHT22;3657;49.630;11.018;2024-01-27T07:20:20;2.60;99.90
7232;DHT22;3657;49.630;11.018;2024-01-27T07:22:48;2.50;99.90
7232;DHT22;3657;49.630;11.018;2024-01-27T07:25:15;2.60;99.90
7232;DHT22;3657;49.630;11.018;2024-01-27T07:27:42;2.60;99.90
7232;DHT22;3657;49.630;11.018;2024-01-27T07:30:10;2.60;99.90
7232;DHT22;3657;49.630;11.018;2024-01-27T07:32:36;2.60;99.90
7232;DHT22;3657;49.630;11.018;2024-01-27T07:35:05;2.60;99.90
7232;DHT22;3657;49.630;11.018;2024-01-27T07:37:32;2.50;99.90
7232;DHT22;3657;49.630;11.018;2024-01-27T07:39:59;2.60;99.90
7232;DHT22;3657;49.630;11.018;2024-01-27T07:42:25;2.60;99.90
7232;DHT22;3657;49.630;11.018;2024-01-27T07:44:52;2.60;99.90
7232;DHT22;3657;49.630;11.018;2024-01-27T07:47:19;2.60;99.90
7232;DHT22;3657;49.630;11.018;2024-01-27T07:49:45;2.60;99.90
7232;DHT22;3657;49.630;11.018;2024-01-27T07:52:15;2.60;99.90
7232;DHT22;3657;49.630;11.018;2024-01-27T07:54:42;2.60;99.90
7232;DHT22;3657;49.630;11.018;2024-01-27T07:57:09;2.50;99.90
7232;DHT22;3657;49.630;11.018;2024-01-27T07:59:37;2.50;99.90
7232;DHT22;3657;49.630;11.018;2024-01-27T08:02:04;2.60;99.90
7232;DHT22;3657;49.630;11.018;2024-01-27T08:04:31;2.60;99.90
7232;DHT22;3657;49.630;11.018;2024-01-27T08:06:58;2.60;99.90
7232;DHT22;3657;49.630;11.018;2024-01-27T08:09:27;2.60;99.90
7232;DHT22;3657;49.630;11.018;2024-01-27T08:11:53;2.60;99.90
7232;DHT22;3657;49.630;11.018;2024-01-27T08:14:20;2.60;99.90
7232;DHT22;3657;49.630;11.018;2024-01-27T08:16:47;2.60;99.90
7232;DHT22;3657;49.630;11.018;2024-01-27T08:19:15;2.60;99.90
7232;DHT22;3657;49.630;11.018;2024-01-27T08:21:45;2.60;99.90
7232;DHT22;3657;49.630;11.018;2024-01-27T08:24:12;2.60;99.90
7232;DHT22;3657;49.630;11.018;2024-01-27T08:26:40;2.50;99.90
7232;DHT22;3657;49.630;11.018;2024-01-27T08:29:07;2.60;99.90
7232;DHT22;3657;49.630;11.018;2024-01-27T08:31:34;2.40;99.90
7232;DHT22;3657;49.630;11.018;2024-01-27T08:34:03;2.40;99.90
7232;DHT22;3657;49.630;11.018;2024-01-27T08:36:30;2.40;99.90
7232;DHT22;3657;49.630;11.018;2024-01-27T08:38:57;2.50;99.90
7232;DHT22;3657;49.630;11.018;2024-01-27T08:41:24;2.50;99.90
7232;DHT22;3657;49.630;11.018;2024-01-27T08:43:52;2.50;99.90
7232;DHT22;3657;49.630;11.018;2024-01-27T08:46:19;2.50;99.90
7232;DHT22;3657;49.630;11.018;2024-01-27T08:48:47;2.50;99.90
7232;DHT22;3657;49.630;11.018;2024-01-27T08:51:14;2.50;99.90
7232;DHT22;3657;49.630;11.018;2024-01-27T08:53:42;2.60;99.90
7232;DHT22;3657;49.630;11.018;2024-01-27T08:56:14;2.60;99.90
7232;DHT22;3657;49.630;11.018;2024-01-27T08:58:41;2.70;99.90
7232;DHT22;3657;49.630;11.018;2024-01-27T09:01:09;2.60;99.90
7232;DHT22;3657;49.630;11.018;2024-01-27T09:03:38;2.70;99.90
7232;DHT22;3657;49.630;11.018;2024-01-27T09:06:05;2.70;99.90
7232;DHT22;3657;49.630;11.018;2024-01-27T09:08:33;2.70;99.90
7232;DHT22;3657;49.630;11.018;2024-01-27T09:11:00;2.80;99.90
7232;DHT22;3657;49.630;11.018;2024-01-27T09:13:27;2.90;99.90
7232;DHT22;3657;49.630;11.018;2024-01-27T09:15:53;3.00;99.90
7232;DHT22;3657;49.630;11.018;2024-01-27T09:18:21;3.10;99.90
7232;DHT22;3657;49.630;11.018;2024-01-27T09:20:48;3.30;99.90
7232;DHT22;3657;49.630;11.018;2024-01-27T09:23:15;3.40;99.90
7232;DHT22;3657;49.630;11.018;2024-01-27T09:25:42;3.60;99.90
7232;DHT22;3657;49.630;11.018;2024-01-27T09:28:08;3.70;99.90
7232;DHT22;3657;49.630;11.018;2024-01-27T09:30:36;4.00;99.90
7232;DHT22;3657;49.630;11.018;2024-01-27T09:33:02;4.30;99.90
7232;DHT22;3657;49.630;11.018;2024-01-27T09:35:30;4.60;99.90
7232;DHT22;3657;49.630;11.018;2024-01-27T09:37:58;5.00;99.90
7232;DHT22;3657;49.630;11.018;2024-01-27T09:40:24;5.20;99.90
7232;DHT22;3657;49.630;11.018;2024-01-27T09:42:52;5.50;99.90
7232;DHT22;3657;49.630;11.018;2024-01-27T09:45:20;5.60;99.90
7232;DHT22;3657;49.630;11.018;2024-01-27T09:47:47;6.00;99.90
7232;DHT22;3657;49.630;11.018;2024-01-27T09:50:14;6.30;99.90
7232;DHT22;3657;49.630;11.018;2024-01-27T09:52:44;6.60;99.90
7232;DHT22;3657;49.630;11.018;2024-01-27T09:55:11;6.50;99.90
7232;DHT22;3657;49.630;11.018;2024-01-27T09:57:38;6.60;99.90
7232;DHT22;3657;49.630;11.018;2024-01-27T10:00:10;6.60;99.90
7232;DHT22;3657;49.630;11.018;2024-01-27T10:02:39;6.60;99.90
7232;DHT22;3657;49.630;11.018;2024-01-27T10:05:07;6.70;99.90
7232;DHT22;3657;49.630;11.018;2024-01-27T10:07:35;6.70;99.90
7232;DHT22;3657;49.630;11.018;2024-01-27T10:10:03;6.80;99.90
7232;DHT22;3657;49.630;11.018;2024-01-27T10:12:31;6.90;99.90
7232;DHT22;3657;49.630;11.018;2024-01-27T10:14:59;6.90;99.90
7232;DHT22;3657;49.630;11.018;2024-01-27T10:17:26;6.90;99.90
7232;DHT22;3657;49.630;11.018;2024-01-27T10:20:01;7.00;99.90
7232;DHT22;3657;49.630;11.018;2024-01-27T10:22:29;7.20;99.90
7232;DHT22;3657;49.630;11.018;2024-01-27T10:24:55;7.10;99.90
7232;DHT22;3657;49.630;11.018;2024-01-27T10:27:24;7.20;99.90
7232;DHT22;3657;49.630;11.018;2024-01-27T10:29:54;7.10;99.90
7232;DHT22;3657;49.630;11.018;2024-01-27T10:32:22;7.00;99.90
7232;DHT22;3657;49.630;11.018;2024-01-27T10:34:49;7.10;99.90
7232;DHT22;3657;49.630;11.018;2024-01-27T10:37:24;7.30;99.90
7232;DHT22;3657;49.630;11.018;2024-01-27T10:40:00;7.40;99.90
7232;DHT22;3657;49.630;11.018;2024-01-27T10:42:29;7.50;99.90
7232;DHT22;3657;49.630;11.018;2024-01-27T10:44:58;7.70;99.90
7232;DHT22;3657;49.630;11.018;2024-01-27T10:47:27;7.80;99.90
7232;DHT22;3657;49.630;11.018;2024-01-27T10:49:55;8.00;99.90
7232;DHT22;3657;49.630;11.018;2024-01-27T10:52:24;8.10;99.90
7232;DHT22;3657;49.630;11.018;2024-01-27T10:54:58;8.20;99.90
7232;DHT22;3657;49.630;11.018;2024-01-27T10:57:28;8.40;99.90
7232;DHT22;3657;49.630;11.018;2024-01-27T10:59:56;8.40;99.90
7232;DHT22;3657;49.630;11.018;2024-01-27T11:02:23;8.70;99.90
7232;DHT22;3657;49.630;11.018;2024-01-27T11:04:51;8.70;99.90
7232;DHT22;3657;49.630;11.018;2024-01-27T11:07:19;8.60;99.90
7232;DHT22;3657;49.630;11.018;2024-01-27T11:09:48;8.50;99.90
7232;DHT22;3657;49.630;11.018;2024-01-27T11:12:17;8.50;99.90
7232;DHT22;3657;49.630;11.018;2024-01-27T11:14:46;8.50;99.90
7232;DHT22;3657;49.630;11.018;2024-01-27T11:17:13;8.70;99.90
7232;DHT22;3657;49.630;11.018;2024-01-27T11:19:40;8.80;99.90
7232;DHT22;3657;49.630;11.018;2024-01-27T11:22:07;8.80;99.90
7232;DHT22;3657;49.630;11.018;2024-01-27T11:24:34;9.00;99.90
7232;DHT22;3657;49.630;11.018;2024-01-27T11:27:02;9.10;99.90
7232;DHT22;3657;49.630;11.018;2024-01-27T11:29:29;9.00;99.90
7232;DHT22;3657;49.630;11.018;2024-01-27T11:32:00;8.90;99.90
7232;DHT22;3657;49.630;11.018;2024-01-27T11:34:27;8.90;99.90
7232;DHT22;3657;49.630;11.018;2024-01-27T11:36:53;8.90;99.90
7232;DHT22;3657;49.630;11.018;2024-01-27T11:39:24;9.00;99.90
7232;DHT22;3657;49.630;11.018;2024-01-27T11:41:52;9.10;99.90
7232;DHT22;3657;49.630;11.018;2024-01-27T11:44:19;9.10;99.90
7232;DHT22;3657;49.630;11.018;2024-01-27T11:46:47;9.20;99.90
7232;DHT22;3657;49.630;11.018;2024-01-27T11:49:16;9.20;99.90
7232;DHT22;3657;49.630;11.018;2024-01-27T11:51:43;9.10;99.90
7232;DHT22;3657;49.630;11.018;2024-01-27T11:54:10;9.10;99.90
7232;DHT22;3657;49.630;11.018;2024-01-27T11:56:37;9.10;99.90
7232;DHT22;3657;49.630;11.018;2024-01-27T11:59:03;9.20;99.90
7232;DHT22;3657;49.630;11.018;2024-01-27T12:01:30;9.40;99.90
7232;DHT22;3657;49.630;11.018;2024-01-27T12:03:57;9.40;99.90
7232;DHT22;3657;49.630;11.018;2024-01-27T12:06:25;9.40;99.90
7232;DHT22;3657;49.630;11.018;2024-01-27T12:08:53;9.40;99.90
7232;DHT22;3657;49.630;11.018;2024-01-27T12:11:21;9.40;99.90
7232;DHT22;3657;49.630;11.018;2024-01-27T12:13:48;9.50;99.90
7232;DHT22;3657;49.630;11.018;2024-01-27T12:16:15;9.50;99.90
7232;DHT22;3657;49.630;11.018;2024-01-27T12:18:42;9.50;99.90
7232;DHT22;3657;49.630;11.018;2024-01-27T12:21:09;9.50;99.90
7232;DHT22;3657;49.630;11.018;2024-01-27T12:23:50;9.50;99.90
7232;DHT22;3657;49.630;11.018;2024-01-27T12:26:17;9.40;99.90
7232;DHT22;3657;49.630;11.018;2024-01-27T12:28:45;9.40;99.90
7232;DHT22;3657;49.630;11.018;2024-01-27T12:31:12;9.40;99.90
7232;DHT22;3657;49.630;11.018;2024-01-27T12:33:40;9.50;99.90
7232;DHT22;3657;49.630;11.018;2024-01-27T12:36:07;9.50;99.90
7232;DHT22;3657;49.630;11.018;2024-01-27T12:38:37;9.50;99.90
7232;DHT22;3657;49.630;11.018;2024-01-27T12:41:03;9.60;99.90
7232;DHT22;3657;49.630;11.018;2024-01-27T12:43:30;9.80;99.90
7232;DHT22;3657;49.630;11.018;2024-01-27T12:45:57;9.80;99.90
7232;DHT22;3657;49.630;11.018;2024-01-27T12:48:24;9.80;99.90
7232;DHT22;3657;49.630;11.018;2024-01-27T12:50:50;9.80;99.90
7232;DHT22;3657;49.630;11.018;2024-01-27T12:53:18;9.70;99.90
7232;DHT22;3657;49.630;11.018;2024-01-27T12:55:46;9.70;99.90
7232;DHT22;3657;49.630;11.018;2024-01-27T12:58:13;9.80;99.90
7232;DHT22;3657;49.630;11.018;2024-01-27T13:00:39;9.80;99.90
7232;DHT22;3657;49.630;11.018;2024-01-27T13:03:06;9.70;99.90
7232;DHT22;3657;49.630;11.018;2024-01-27T13:05:33;9.80;99.90
7232;DHT22;3657;49.630;11.018;2024-01-27T13:08:00;9.80;99.90
7232;DHT22;3657;49.630;11.018;2024-01-27T13:10:26;9.80;99.90
7232;DHT22;3657;49.630;11.018;2024-01-27T13:12:54;9.70;99.90
7232;DHT22;3657;49.630;11.018;2024-01-27T13:15:21;9.60;99.90
7232;DHT22;3657;49.630;11.018;2024-01-27T13:17:50;9.60;99.90
7232;DHT22;3657;49.630;11.018;2024-01-27T13:20:17;9.70;99.90
7232;DHT22;3657;49.630;11.018;2024-01-27T13:22:44;9.80;99.90
7232;DHT22;3657;49.630;11.018;2024-01-27T13:25:11;9.90;99.90
7232;DHT22;3657;49.630;11.018;2024-01-27T13:27:38;10.10;99.90
7232;DHT22;3657;49.630;11.018;2024-01-27T13:30:07;10.10;99.90
7232;DHT22;3657;49.630;11.018;2024-01-27T13:32:34;10.10;99.90
7232;DHT22;3657;49.630;11.018;2024-01-27T13:35:01;10.20;99.90
7232;DHT22;3657;49.630;11.018;2024-01-27T13:37:28;10.10;99.90
7232;DHT22;3657;49.630;11.018;2024-01-27T13:39:58;10.10;99.90
7232;DHT22;3657;49.630;11.018;2024-01-27T13:42:25;10.20;99.90
7232;DHT22;3657;49.630;11.018;2024-01-27T13:44:52;10.20;99.90
7232;DHT22;3657;49.630;11.018;2024-01-27T13:47:26;10.30;99.90
7232;DHT22;3657;49.630;11.018;2024-01-27T13:49:54;10.50;99.90
7232;DHT22;3657;49.630;11.018;2024-01-27T13:52:20;10.60;99.90
7232;DHT22;3657;49.630;11.018;2024-01-27T13:54:47;10.80;99.90
7232;DHT22;3657;49.630;11.018;2024-01-27T13:57:15;10.90;99.90
7232;DHT22;3657;49.630;11.018;2024-01-27T13:59:42;10.90;99.90
7232;DHT22;3657;49.630;11.018;2024-01-27T14:02:09;10.90;99.90
7232;DHT22;3657;49.630;11.018;2024-01-27T14:04:37;10.80;99.90
7232;DHT22;3657;49.630;11.018;2024-01-27T14:07:04;10.70;99.90
7232;DHT22;3657;49.630;11.018;2024-01-27T14:09:33;10.70;99.90
7232;DHT22;3657;49.630;11.018;2024-01-27T14:12:00;10.80;99.90
7232;DHT22;3657;49.630;11.018;2024-01-27T14:14:27;10.80;99.90
7232;DHT22;3657;49.630;11.018;2024-01-27T14:16:54;10.80;99.90
7232;DHT22;3657;49.630;11.018;2024-01-27T14:19:21;10.80;99.90
7232;DHT22;3657;49.630;11.018;2024-01-27T14:21:49;10.60;99.90
7232;DHT22;3657;49.630;11.018;2024-01-27T14:24:15;10.50;99.90
7232;DHT22;3657;49.630;11.018;2024-01-27T14:26:42;10.40;99.90
7232;DHT22;3657;49.630;11.018;2024-01-27T14:29:09;10.30;99.90
7232;DHT22;3657;49.630;11.018;2024-01-27T14:31:35;10.30;99.90
7232;DHT22;3657;49.630;11.018;2024-01-27T14:34:02;10.30;99.90
7232;DHT22;3657;49.630;11.018;2024-01-27T14:36:29;10.30;99.90
7232;DHT22;3657;49.630;11.018;2024-01-27T14:38:57;10.30;99.90
7232;DHT22;3657;49.630;11.018;2024-01-27T14:41:24;10.20;99.90
7232;DHT22;3657;49.630;11.018;2024-01-27T14:43:51;10.20;99.90
7232;DHT22;3657;49.630;11.018;2024-01-27T14:46:18;10.20;99.90
7232;DHT22;3657;49.630;11.018;2024-01-27T14:48:44;10.20;99.90
7232;DHT22;3657;49.630;11.018;2024-01-27T14:51:11;10.20;99.90
7232;DHT22;3657;49.630;11.018;2024-01-27T14:53:40;10.10;99.90
7232;DHT22;3657;49.630;11.018;2024-01-27T14:56:08;10.10;99.90
7232;DHT22;3657;49.630;11.018;2024-01-27T14:58:35;10.10;99.90
7232;DHT22;3657;49.630;11.018;2024-01-27T15:01:02;10.10;99.90
7232;DHT22;3657;49.630;11.018;2024-01-27T15:03:29;10.00;99.90
7232;DHT22;3657;49.630;11.018;2024-01-27T15:05:55;9.90;99.90
7232;DHT22;3657;49.630;11.018;2024-01-27T15:08:24;9.90;99.90
7232;DHT22;3657;49.630;11.018;2024-01-27T15:10:50;9.80;99.90
7232;DHT22;3657;49.630;11.018;2024-01-27T15:13:21;9.70;99.90
7232;DHT22;3657;49.630;11.018;2024-01-27T15:15:49;9.70;99.90
7232;DHT22;3657;49.630;11.018;2024-01-27T15:18:15;9.60;99.90
7232;DHT22;3657;49.630;11.018;2024-01-27T15:20:42;9.50;99.90
7232;DHT22;3657;49.630;11.018;2024-01-27T15:23:09;9.50;99.90
7232;DHT22;3657;49.630;11.018;2024-01-27T15:25:36;9.40;99.90
7232;DHT22;3657;49.630;11.018;2024-01-27T15:28:03;9.40;99.90
7232;DHT22;3657;49.630;11.018;2024-01-27T15:30:31;9.30;99.90
7232;DHT22;3657;49.630;11.018;2024-01-27T15:32:58;9.20;99.90
7232;DHT22;3657;49.630;11.018;2024-01-27T15:35:25;9.20;99.90
7232;DHT22;3657;49.630;11.018;2024-01-27T15:37:55;9.10;99.90
7232;DHT22;3657;49.630;11.018;2024-01-27T15:40:22;9.10;99.90
7232;DHT22;3657;49.630;11.018;2024-01-27T15:42:51;9.00;99.90
7232;DHT22;3657;49.630;11.018;2024-01-27T15:45:18;8.90;99.90
7232;DHT22;3657;49.630;11.018;2024-01-27T15:47:48;8.80;99.90
7232;DHT22;3657;49.630;11.018;2024-01-27T15:50:15;8.80;99.90
7232;DHT22;3657;49.630;11.018;2024-01-27T15:52:42;8.70;99.90
7232;DHT22;3657;49.630;11.018;2024-01-27T15:55:09;8.50;99.90
7232;DHT22;3657;49.630;11.018;2024-01-27T15:57:36;8.40;99.90
7232;DHT22;3657;49.630;11.018;2024-01-27T16:00:04;8.30;99.90